Time;durP1;ratioP1;P1;durP2;ratioP2;P2;SDS_P1;SDS_P2;PMS_P1;PMS_P2;Temp;Humidity;BMP_temperature;BMP_pressure;BME280_temperature;BME280_humidity;BME280_pressure;Samples;Min_cycle;Max_cycle;Signal;HPM_P1;HPM_P2
2023/11/20 00:00:24;;;;;;;17.10;5.90;;;;;;;7.08;99.96;99483.26;129456;1262;115258;-60
2023/11/20 00:03:46;;;;;;;19.60;6.60;;;;;;;7.14;99.97;99481.34;129542;1262;128533;-61
2023/11/20 00:06:49;;;;;;;14.20;6.40;;;;;;;7.20;100.00;99479.09;129606;1273;114710;-60
2023/11/20 00:09:50;;;;;;;19.90;6.30;;;;;;;7.26;100.00;99475.09;129459;1262;114753;-60
2023/11/20 00:12:53;;;;;;;17.60;5.10;;;;;;;7.32;100.00;99478.71;129550;1281;114815;-60
2023/11/20 00:15:55;;;;;;;20.20;5.70;;;;;;;7.37;100.00;99475.23;129422;1275;114819;-60
2023/11/20 00:18:57;;;;;;;21.30;5.30;;;;;;;7.43;100.00;99480.10;129458;1278;114728;-62
2023/11/20 00:22:00;;;;;;;23.60;4.90;;;;;;;7.50;100.00;99482.10;129489;1260;114718;-60
2023/11/20 00:25:03;;;;;;;18.40;5.40;;;;;;;7.55;100.00;99483.25;129438;1264;128913;-61
2023/11/20 00:28:05;;;;;;;19.00;5.40;;;;;;;7.59;100.00;99480.52;129600;1281;115438;-60
2023/11/20 00:31:16;;;;;;;24.40;5.10;;;;;;;7.64;100.00;99479.05;129730;1262;114762;-61
2023/11/20 00:34:18;;;;;;;19.30;4.90;;;;;;;7.69;100.00;99474.72;129346;1268;114661;-62
2023/11/20 00:37:20;;;;;;;14.10;4.80;;;;;;;7.74;100.00;99475.38;129449;1276;115183;-64
2023/11/20 00:40:22;;;;;;;20.20;4.20;;;;;;;7.79;100.00;99477.09;129608;1281;114902;-61
2023/11/20 00:43:24;;;;;;;18.80;4.60;;;;;;;7.82;100.00;99481.17;129239;1277;128374;-60
2023/11/20 00:46:26;;;;;;;18.10;4.50;;;;;;;7.86;100.00;99480.09;129455;1262;115392;-61
2023/11/20 00:49:28;;;;;;;18.10;4.60;;;;;;;7.90;100.00;99482.69;129739;1262;114812;-63
2023/11/20 00:52:31;;;;;;;14.40;4.90;;;;;;;7.94;99.99;99485.55;129504;1262;114808;-60
2023/11/20 00:55:33;;;;;;;11.70;3.80;;;;;;;7.98;100.00;99489.23;129805;1262;115168;-62
2023/11/20 00:58:35;;;;;;;20.00;4.30;;;;;;;8.01;100.00;99485.70;129432;1262;114818;-61
2023/11/20 01:01:37;;;;;;;11.50;3.60;;;;;;;8.04;99.99;99482.52;129518;1262;114843;-65
2023/11/20 01:04:40;;;;;;;15.50;4.00;;;;;;;8.09;100.00;99484.63;129197;1270;128231;-61
2023/11/20 01:07:42;;;;;;;17.10;3.50;;;;;;;8.12;100.00;99487.81;129422;1278;114955;-60
2023/11/20 01:10:44;;;;;;;12.80;2.90;;;;;;;8.15;100.00;99484.78;129459;1278;115030;-61
2023/11/20 01:13:46;;;;;;;13.80;3.50;;;;;;;8.19;100.00;99476.21;129182;1283;114905;-60
2023/11/20 01:16:48;;;;;;;16.00;3.30;;;;;;;8.24;100.00;99475.27;129444;1280;115164;-60
2023/11/20 01:19:50;;;;;;;9.40;2.90;;;;;;;8.29;100.00;99476.95;129541;1265;115318;-60
2023/11/20 01:22:52;;;;;;;10.10;2.90;;;;;;;8.33;100.00;99478.02;129167;1265;114834;-60
2023/11/20 01:25:55;;;;;;;11.10;3.20;;;;;;;8.36;100.00;99481.20;129308;1265;114757;-60
2023/11/20 01:28:57;;;;;;;12.50;3.40;;;;;;;8.39;100.00;99480.17;129364;1281;114769;-60
2023/11/20 01:31:59;;;;;;;12.90;3.30;;;;;;;8.42;100.00;99478.04;129545;1265;115198;-60
2023/11/20 01:35:01;;;;;;;14.60;3.50;;;;;;;8.45;100.00;99477.14;129426;1264;114830;-61
2023/11/20 01:38:04;;;;;;;14.30;3.30;;;;;;;8.48;100.00;99470.81;129487;1260;114720;-60
2023/11/20 01:41:07;;;;;;;13.60;3.00;;;;;;;8.50;100.00;99475.88;129486;1265;114717;-61
2023/11/20 01:44:09;;;;;;;13.10;3.00;;;;;;;8.51;100.00;99478.29;129453;1263;114841;-60
2023/11/20 01:47:14;;;;;;;9.80;2.90;;;;;;;8.53;100.00;99472.35;129255;1266;127864;-60
2023/11/20 01:50:17;;;;;;;13.40;2.60;;;;;;;8.54;100.00;99471.39;129317;1261;116482;-62
2023/11/20 01:53:20;;;;;;;14.60;3.10;;;;;;;8.54;100.00;99462.45;129247;1268;114908;-60
2023/11/20 01:56:23;;;;;;;15.80;4.20;;;;;;;8.56;100.00;99464.84;129439;1264;114815;-60
2023/11/20 01:59:25;;;;;;;14.00;3.60;;;;;;;8.58;100.00;99458.73;129307;1273;114801;-61
2023/11/20 02:02:31;;;;;;;13.60;3.50;;;;;;;8.58;100.00;99458.15;129408;1266;114719;-60
2023/11/20 02:05:33;;;;;;;13.80;3.30;;;;;;;8.60;100.00;99453.29;129231;1270;114727;-60
2023/11/20 02:08:35;;;;;;;9.90;2.70;;;;;;;8.60;100.00;99455.73;129476;1264;114750;-61
2023/11/20 02:11:37;;;;;;;16.50;3.30;;;;;;;8.61;100.00;99453.17;129459;1264;114714;-61
2023/11/20 02:14:40;;;;;;;14.50;2.90;;;;;;;8.62;100.00;99455.81;129214;1264;115085;-61
2023/11/20 02:17:42;;;;;;;16.00;2.60;;;;;;;8.63;100.00;99457.52;129508;1265;114756;-61
2023/11/20 02:20:44;;;;;;;16.10;3.20;;;;;;;8.64;100.00;99454.27;129493;1261;114707;-61
2023/11/20 02:23:46;;;;;;;10.00;2.70;;;;;;;8.65;100.00;99448.54;129291;1282;127441;-61
2023/11/20 02:27:11;;;;;;;7.90;2.50;;;;;;;8.65;100.00;99451.73;129481;1265;116729;-61
2023/11/20 02:30:14;;;;;;;12.90;4.00;;;;;;;8.65;100.00;99449.61;129187;1280;114860;-61
2023/11/20 02:33:16;;;;;;;14.70;4.40;;;;;;;8.64;100.00;99447.87;129464;1263;114890;-59
2023/11/20 02:36:25;;;;;;;14.00;4.90;;;;;;;8.64;100.00;99446.09;129369;1282;114691;-60
2023/11/20 02:39:27;;;;;;;15.40;4.40;;;;;;;8.64;100.00;99445.00;129460;1267;114709;-61
2023/11/20 02:42:29;;;;;;;15.50;3.60;;;;;;;8.65;100.00;99439.46;129442;1266;114714;-61
2023/11/20 02:45:35;;;;;;;10.30;2.70;;;;;;;8.65;100.00;99436.45;129431;1281;114784;-61
2023/11/20 02:48:37;;;;;;;10.80;3.40;;;;;;;8.65;100.00;99439.45;129455;1264;114698;-61
2023/11/20 02:51:39;;;;;;;10.30;2.90;;;;;;;8.65;100.00;99437.63;129453;1262;114791;-61
2023/11/20 02:54:41;;;;;;;14.50;3.90;;;;;;;8.66;100.00;99439.02;129437;1272;115544;-60
2023/11/20 02:57:44;;;;;;;7.70;3.50;;;;;;;8.66;100.00;99434.22;129593;1259;114699;-61
2023/11/20 03:00:46;;;;;;;11.10;3.30;;;;;;;8.65;100.00;99435.52;129376;1276;128046;-61
2023/11/20 03:03:48;;;;;;;13.80;3.80;;;;;;;8.65;100.00;99437.29;129404;1262;114783;-61
2023/11/20 03:06:50;;;;;;;11.50;3.40;;;;;;;8.65;100.00;99435.86;129546;1262;114740;-61
2023/11/20 03:09:53;;;;;;;8.00;3.10;;;;;;;8.65;100.00;99432.66;129519;1281;114857;-61
2023/11/20 03:12:55;;;;;;;11.60;3.30;;;;;;;8.66;100.00;99434.40;129250;1267;114850;-61
2023/11/20 03:15:57;;;;;;;14.50;4.10;;;;;;;8.68;100.00;99435.21;129387;1262;115249;-61
2023/11/20 03:18:59;;;;;;;9.00;3.90;;;;;;;8.67;100.00;99434.70;129527;1263;114733;-60
2023/11/20 03:22:02;;;;;;;9.90;3.90;;;;;;;8.67;100.00;99433.46;129259;1281;127148;-61
2023/11/20 03:25:06;;;;;;;8.30;3.80;;;;;;;8.68;100.00;99433.61;129464;1266;114754;-60
2023/11/20 03:28:08;;;;;;;22.50;4.60;;;;;;;8.68;100.00;99431.83;129581;1262;115178;-61
2023/11/20 03:31:10;;;;;;;10.80;4.20;;;;;;;8.68;100.00;99432.02;129420;1281;114800;-60
2023/11/20 03:34:11;;;;;;;10.50;4.10;;;;;;;8.67;100.00;99429.19;129466;1281;114713;-61
2023/11/20 03:37:13;;;;;;;12.50;4.00;;;;;;;8.67;100.00;99423.34;129399;1262;115161;-60
2023/11/20 03:40:16;;;;;;;15.30;4.40;;;;;;;8.65;100.00;99419.52;129409;1266;114796;-60
2023/11/20 03:43:20;;;;;;;10.50;4.90;;;;;;;8.64;100.00;99421.89;129500;1262;114734;-61
2023/11/20 03:46:21;;;;;;;17.30;5.50;;;;;;;8.62;100.00;99418.04;129701;1263;114883;-61
2023/11/20 03:49:24;;;;;;;14.10;4.90;;;;;;;8.62;100.00;99415.02;129501;1281;114828;-61
2023/11/20 03:52:26;;;;;;;11.80;4.30;;;;;;;8.62;100.00;99413.64;129518;1262;114766;-61
2023/11/20 03:55:28;;;;;;;12.30;5.80;;;;;;;8.61;100.00;99413.13;129595;1281;114732;-60
2023/11/20 03:58:30;;;;;;;19.00;6.30;;;;;;;8.61;100.00;99407.30;129508;1267;114759;-60
2023/11/20 04:01:32;;;;;;;15.70;6.00;;;;;;;8.59;100.00;99408.09;129360;1281;130019;-59
2023/11/20 04:04:34;;;;;;;12.00;5.80;;;;;;;8.59;100.00;99404.00;129361;1281;114815;-59
2023/11/20 04:07:36;;;;;;;16.40;6.00;;;;;;;8.59;100.00;99403.30;129489;1266;115171;-59
2023/11/20 04:10:38;;;;;;;11.90;6.10;;;;;;;8.59;100.00;99409.16;129226;1264;114845;-60
2023/11/20 04:13:40;;;;;;;10.80;5.20;;;;;;;8.59;100.00;99398.16;129447;1262;115160;-60
2023/11/20 04:16:43;;;;;;;12.70;5.10;;;;;;;8.58;100.00;99400.84;129470;1267;114792;-60
2023/11/20 04:19:45;;;;;;;11.90;4.40;;;;;;;8.58;100.00;99394.95;129410;1265;114723;-59
2023/11/20 04:22:47;;;;;;;11.10;5.00;;;;;;;8.57;100.00;99391.66;129409;1262;115397;-60
2023/11/20 04:25:49;;;;;;;7.90;4.90;;;;;;;8.57;100.00;99390.42;129399;1265;114844;-59
2023/11/20 04:28:51;;;;;;;11.30;5.00;;;;;;;8.57;100.00;99388.63;129214;1266;114892;-59
2023/11/20 04:31:53;;;;;;;11.50;4.60;;;;;;;8.57;100.00;99382.08;129509;1263;114799;-59
2023/11/20 04:34:55;;;;;;;11.90;6.10;;;;;;;8.56;100.00;99378.04;129521;1263;114807;-59
2023/11/20 04:37:57;;;;;;;7.40;4.80;;;;;;;8.56;100.00;99379.63;129371;1263;114831;-60
2023/11/20 04:40:59;;;;;;;11.10;4.90;;;;;;;8.56;100.00;99382.64;129311;1273;116501;-60
2023/11/20 04:44:01;;;;;;;8.90;4.70;;;;;;;8.56;100.00;99379.08;129411;1269;114755;-60
2023/11/20 04:47:03;;;;;;;12.70;5.90;;;;;;;8.57;100.00;99385.27;129243;1282;128549;-60
2023/11/20 04:50:08;;;;;;;8.00;4.40;;;;;;;8.57;100.00;99385.09;129361;1273;114725;-60
2023/11/20 04:53:10;;;;;;;9.20;4.90;;;;;;;8.56;100.00;99383.89;129254;1264;114639;-59
2023/11/20 04:56:13;;;;;;;12.60;6.10;;;;;;;8.56;100.00;99387.80;129362;1265;114757;-60
2023/11/20 04:59:15;;;;;;;10.00;6.00;;;;;;;8.55;100.00;99384.27;129504;1273;114733;-60
2023/11/20 05:02:17;;;;;;;11.00;5.30;;;;;;;8.55;100.00;99382.71;129455;1271;115517;-60
2023/11/20 05:05:20;;;;;;;13.00;5.30;;;;;;;8.55;100.00;99384.11;129225;1279;128124;-60
2023/11/20 05:08:22;;;;;;;8.00;5.20;;;;;;;8.55;100.00;99382.33;129457;1274;114927;-60
2023/11/20 05:11:25;;;;;;;8.40;4.70;;;;;;;8.56;100.00;99379.80;129427;1265;114796;-60
2023/11/20 05:14:27;;;;;;;11.80;5.60;;;;;;;8.56;100.00;99377.84;129479;1273;114809;-60
2023/11/20 05:17:29;;;;;;;9.10;5.30;;;;;;;8.56;100.00;99377.66;129153;1266;114841;-58
2023/11/20 05:20:31;;;;;;;12.00;5.90;;;;;;;8.57;100.00;99374.07;129429;1264;114777;-59
2023/11/20 05:23:33;;;;;;;10.50;6.30;;;;;;;8.57;100.00;99372.64;129540;1263;114696;-60
2023/11/20 05:26:36;;;;;;;13.30;6.40;;;;;;;8.57;100.00;99373.14;129477;1266;129164;-59
2023/11/20 05:29:38;;;;;;;11.50;6.20;;;;;;;8.58;100.00;99377.38;129277;1261;114824;-60
2023/11/20 05:32:40;;;;;;;10.40;6.10;;;;;;;8.58;100.00;99377.91;129586;1263;114833;-59
2023/11/20 05:35:43;;;;;;;12.60;6.40;;;;;;;8.59;100.00;99377.66;129318;1267;114695;-59
2023/11/20 05:38:45;;;;;;;8.90;5.60;;;;;;;8.59;100.00;99372.86;129482;1274;115363;-59
2023/11/20 05:41:47;;;;;;;12.00;5.60;;;;;;;8.59;100.00;99373.20;129424;1263;114889;-59
2023/11/20 05:44:50;;;;;;;8.80;5.80;;;;;;;8.59;100.00;99371.61;129526;1282;114706;-60
2023/11/20 05:47:52;;;;;;;16.50;5.70;;;;;;;8.59;100.00;99373.92;129317;1282;128417;-59
2023/11/20 05:50:54;;;;;;;8.20;5.10;;;;;;;8.60;100.00;99369.09;129524;1273;115094;-60
2023/11/20 05:53:57;;;;;;;6.60;4.90;;;;;;;8.60;100.00;99371.94;129425;1266;115197;-61
2023/11/20 05:56:59;;;;;;;12.80;6.20;;;;;;;8.60;100.00;99369.95;129465;1273;114726;-60
2023/11/20 06:00:02;;;;;;;9.80;6.50;;;;;;;8.61;100.00;99374.02;129461;1261;114747;-61
2023/11/20 06:03:05;;;;;;;16.30;6.70;;;;;;;8.60;100.00;99377.40;129346;1261;114756;-59
2023/11/20 06:06:07;;;;;;;9.90;6.30;;;;;;;8.61;100.00;99376.67;129313;1273;114796;-60
2023/11/20 06:09:10;;;;;;;8.40;6.30;;;;;;;8.60;100.00;99375.46;129494;1263;115405;-60
2023/11/20 06:12:12;;;;;;;10.00;7.00;;;;;;;8.61;100.00;99373.81;129439;1270;115240;-60
2023/11/20 06:15:14;;;;;;;10.70;6.30;;;;;;;8.61;100.00;99377.02;129438;1273;115378;-60
2023/11/20 06:18:19;;;;;;;14.70;7.20;;;;;;;8.62;100.00;99379.63;129575;1263;114721;-60
2023/11/20 06:21:22;;;;;;;13.30;9.50;;;;;;;8.63;100.00;99384.41;129399;1264;114728;-60
2023/11/20 06:24:27;;;;;;;11.00;8.80;;;;;;;8.63;100.00;99385.12;129487;1273;114730;-60
2023/11/20 06:27:30;;;;;;;9.40;8.20;;;;;;;8.64;100.00;99382.91;129526;1264;115153;-60
2023/11/20 06:30:33;;;;;;;10.50;7.20;;;;;;;8.65;100.00;99380.55;129526;1263;114738;-60
2023/11/20 06:33:35;;;;;;;13.50;7.30;;;;;;;8.65;100.00;99384.23;129575;1261;114739;-60
2023/11/20 06:36:37;;;;;;;12.60;7.60;;;;;;;8.66;100.00;99387.60;129597;1273;114725;-59
2023/11/20 06:39:39;;;;;;;28.30;13.60;;;;;;;8.67;100.00;99382.92;129306;1261;114894;-60
2023/11/20 06:42:44;;;;;;;28.50;14.10;;;;;;;8.68;100.00;99389.27;129311;1264;114735;-62
2023/11/20 06:45:46;;;;;;;27.10;13.20;;;;;;;8.69;100.00;99390.84;129162;1260;128314;-60
2023/11/20 06:48:49;;;;;;;16.20;10.10;;;;;;;8.70;100.00;99397.69;129417;1264;114712;-60
2023/11/20 06:51:51;;;;;;;14.50;9.60;;;;;;;8.71;100.00;99394.98;129441;1261;114802;-60
2023/11/20 06:54:54;;;;;;;12.30;8.20;;;;;;;8.72;100.00;99399.90;129399;1274;114796;-59
2023/11/20 06:57:56;;;;;;;14.00;7.60;;;;;;;8.72;100.00;99402.91;129167;1264;116401;-59
2023/11/20 07:01:00;;;;;;;9.80;5.70;;;;;;;8.73;100.00;99401.64;129337;1276;114688;-60
2023/11/20 07:04:02;;;;;;;8.70;6.10;;;;;;;8.74;100.00;99404.80;129448;1273;114770;-59
2023/11/20 07:07:04;;;;;;;10.00;7.30;;;;;;;8.74;100.00;99407.65;129397;1264;114725;-59
2023/11/20 07:10:11;;;;;;;11.30;7.30;;;;;;;8.74;100.00;99402.44;129525;1264;114753;-60
2023/11/20 07:13:14;;;;;;;13.80;7.40;;;;;;;8.76;100.00;99401.48;129159;1266;114854;-59
2023/11/20 07:16:17;;;;;;;8.10;6.20;;;;;;;8.77;100.00;99400.49;129237;1264;116357;-60
2023/11/20 07:19:18;;;;;;;6.60;5.60;;;;;;;8.79;100.00;99400.75;129435;1264;114712;-61
2023/11/20 07:22:21;;;;;;;8.60;5.20;;;;;;;8.79;100.00;99399.83;129547;1273;115211;-60
2023/11/20 07:25:24;;;;;;;8.40;5.20;;;;;;;8.82;100.00;99400.25;129275;1282;129647;-61
2023/11/20 07:28:26;;;;;;;9.90;5.30;;;;;;;8.84;100.00;99402.60;129400;1264;115162;-60
2023/11/20 07:31:31;;;;;;;8.90;5.20;;;;;;;8.87;100.00;99402.08;129445;1273;114780;-60
2023/11/20 07:34:33;;;;;;;10.20;5.90;;;;;;;8.87;100.00;99399.05;129472;1260;114825;-60
2023/11/20 07:37:35;;;;;;;8.60;5.00;;;;;;;8.89;100.00;99398.92;129472;1261;114784;-61
2023/11/20 07:40:38;;;;;;;7.70;5.20;;;;;;;8.93;100.00;99399.21;129409;1263;114748;-61
2023/11/20 07:43:40;;;;;;;8.40;5.10;;;;;;;8.98;100.00;99399.33;129414;1263;115399;-60
2023/11/20 07:46:42;;;;;;;8.80;5.50;;;;;;;9.01;100.00;99400.91;129330;1277;115196;-61
2023/11/20 07:49:44;;;;;;;10.00;4.80;;;;;;;9.05;100.00;99402.49;129503;1263;114753;-61
2023/11/20 07:52:47;;;;;;;6.50;5.00;;;;;;;9.08;100.00;99403.95;129469;1263;114972;-60
2023/11/20 07:55:49;;;;;;;9.10;5.30;;;;;;;9.09;100.00;99404.23;129521;1274;114827;-62
2023/11/20 07:58:53;;;;;;;8.80;5.30;;;;;;;9.09;100.00;99402.95;129381;1265;115299;-58
2023/11/20 08:01:56;;;;;;;8.10;4.20;;;;;;;9.09;100.00;99401.55;129493;1263;128874;-59
2023/11/20 08:04:58;;;;;;;8.10;5.70;;;;;;;9.08;100.00;99399.29;129486;1264;114731;-59
2023/11/20 08:08:01;;;;;;;15.70;9.90;;;;;;;9.06;100.00;99400.13;129551;1263;114731;-59
2023/11/20 08:11:04;;;;;;;12.20;8.40;;;;;;;9.06;100.00;99398.16;129476;1263;115100;-61
2023/11/20 08:14:06;;;;;;;9.10;6.20;;;;;;;9.06;100.00;99398.85;129566;1264;115122;-59
2023/11/20 08:17:08;;;;;;;10.90;7.60;;;;;;;9.05;100.00;99399.11;129181;1272;115160;-60
2023/11/20 08:20:11;;;;;;;9.90;7.20;;;;;;;9.03;100.00;99397.04;129443;1260;114789;-59
2023/11/20 08:23:13;;;;;;;17.10;12.90;;;;;;;9.01;100.00;99397.00;129218;1276;114792;-60
2023/11/20 08:26:16;;;;;;;12.20;7.10;;;;;;;9.01;100.00;99394.92;129299;1264;114743;-61
2023/11/20 08:29:21;;;;;;;9.90;6.10;;;;;;;8.99;100.00;99399.29;129260;1264;114807;-62
2023/11/20 08:32:25;;;;;;;11.00;6.80;;;;;;;8.98;100.00;99395.94;129340;1267;114697;-60
2023/11/20 08:35:28;;;;;;;10.10;7.00;;;;;;;8.99;100.00;99395.54;129546;1264;115405;-60
2023/11/20 08:38:30;;;;;;;9.70;6.20;;;;;;;8.99;100.00;99395.02;129453;1261;114846;-59
2023/11/20 08:41:32;;;;;;;10.60;5.70;;;;;;;8.97;100.00;99395.60;129434;1274;114830;-59
2023/11/20 08:44:34;;;;;;;12.40;6.20;;;;;;;8.98;100.00;99400.02;129456;1265;114876;-59
2023/11/20 08:47:39;;;;;;;8.80;6.20;;;;;;;8.99;100.00;99401.43;129353;1261;114891;-60
2023/11/20 08:50:42;;;;;;;7.30;5.50;;;;;;;8.97;100.00;99403.79;129481;1264;115345;-62
2023/11/20 08:53:44;;;;;;;7.80;5.80;;;;;;;8.96;100.00;99399.58;129345;1282;115003;-61
2023/11/20 08:56:51;;;;;;;8.10;5.30;;;;;;;8.96;100.00;99401.23;126623;1263;3814495;-60
2023/11/20 08:59:53;;;;;;;10.50;6.40;;;;;;;8.96;100.00;99403.20;129236;1282;116372;-60
2023/11/20 09:02:55;;;;;;;8.80;5.80;;;;;;;8.96;100.00;99401.39;129406;1260;114829;-60
2023/11/20 09:05:58;;;;;;;13.30;6.10;;;;;;;8.97;100.00;99405.80;129530;1263;114746;-61
2023/11/20 09:09:00;;;;;;;8.90;4.80;;;;;;;8.99;100.00;99400.15;129497;1264;114739;-59
2023/11/20 09:12:03;;;;;;;12.90;6.30;;;;;;;8.99;100.00;99396.40;129420;1275;114876;-59
2023/11/20 09:15:07;;;;;;;12.50;6.70;;;;;;;9.00;100.00;99396.35;129331;1261;114816;-59
2023/11/20 09:18:09;;;;;;;19.40;10.40;;;;;;;9.01;100.00;99395.06;129441;1264;114796;-59
2023/11/20 09:21:13;;;;;;;18.30;11.00;;;;;;;9.03;100.00;99391.89;129447;1264;114759;-62
2023/11/20 09:24:15;;;;;;;17.60;10.60;;;;;;;9.05;100.00;99390.70;129263;1264;114801;-58
2023/11/20 09:27:18;;;;;;;14.40;8.30;;;;;;;9.10;100.00;99394.00;129386;1274;115343;-60
2023/11/20 09:30:20;;;;;;;15.20;8.50;;;;;;;9.16;100.00;99391.16;129495;1282;114853;-60
2023/11/20 09:33:22;;;;;;;10.60;7.50;;;;;;;9.23;100.00;99385.55;129679;1264;114725;-62
2023/11/20 09:36:24;;;;;;;14.90;8.60;;;;;;;9.34;100.00;99381.37;129247;1276;128178;-59
2023/11/20 09:39:26;;;;;;;13.50;9.20;;;;;;;9.44;100.00;99377.77;129214;1267;115116;-59
2023/11/20 09:42:29;;;;;;;14.40;9.50;;;;;;;9.52;100.00;99371.23;129209;1267;115040;-59
2023/11/20 09:45:33;;;;;;;15.00;12.20;;;;;;;9.59;100.00;99364.77;129396;1266;114934;-59
2023/11/20 09:48:38;;;;;;;13.60;9.20;;;;;;;9.64;100.00;99361.56;129116;1283;114935;-60
2023/11/20 09:51:43;;;;;;;16.10;8.50;;;;;;;9.75;100.00;99360.77;129091;1264;114835;-59
2023/11/20 09:54:46;;;;;;;15.30;8.40;;;;;;;9.88;100.00;99360.48;129112;1282;128597;-59
2023/11/20 09:57:50;;;;;;;12.90;8.80;;;;;;;10.01;100.00;99351.30;129385;1264;114749;-61
2023/11/20 10:00:56;;;;;;;16.90;9.50;;;;;;;10.11;100.00;99346.22;129437;1259;114729;-62
2023/11/20 10:03:58;;;;;;;15.90;10.40;;;;;;;10.20;100.00;99348.00;129458;1259;114723;-61
2023/11/20 10:07:03;;;;;;;11.20;9.20;;;;;;;10.22;100.00;99344.67;129347;1266;114801;-61
2023/11/20 10:10:05;;;;;;;;;;;;;;;10.21;100.00;99346.83;129457;1282;128763;-60
2023/11/20 10:13:09;;;;;;;21.00;9.60;;;;;;;10.18;100.00;99342.70;129496;1263;115241;-60
2023/11/20 10:16:19;;;;;;;15.00;7.50;;;;;;;10.14;100.00;99333.54;129479;1259;114791;-59
2023/11/20 10:19:21;;;;;;;20.00;11.30;;;;;;;10.10;100.00;99332.19;129433;1273;114831;-60
2023/11/20 10:22:34;;;;;;;13.30;10.70;;;;;;;10.06;100.00;99329.58;129437;1260;114773;-60
2023/11/20 10:25:36;;;;;;;12.10;8.00;;;;;;;10.00;100.00;99321.17;129399;1264;128373;-58
2023/11/20 10:28:41;;;;;;;10.00;7.00;;;;;;;9.99;100.00;99323.79;129377;1264;114852;-57
2023/11/20 10:31:44;;;;;;;10.10;6.80;;;;;;;9.97;100.00;99322.27;129385;1264;114821;-60
2023/11/20 10:34:46;;;;;;;7.70;5.90;;;;;;;9.96;100.00;99318.94;129390;1260;114945;-64
2023/11/20 10:37:58;;;;;;;13.40;5.80;;;;;;;9.94;100.00;99310.19;129383;1259;114767;-60
2023/11/20 10:41:00;;;;;;;11.70;6.60;;;;;;;9.91;100.00;99311.27;129411;1260;129097;-60
2023/11/20 10:44:03;;;;;;;11.50;6.90;;;;;;;9.90;100.00;99312.22;129507;1264;114764;-60
2023/11/20 10:47:06;;;;;;;15.20;9.50;;;;;;;9.94;100.00;99309.81;129397;1264;116364;-59
2023/11/20 10:50:11;;;;;;;15.90;8.60;;;;;;;9.96;100.00;99309.48;129477;1282;115341;-62
2023/11/20 10:53:17;;;;;;;10.50;6.80;;;;;;;9.97;100.00;99311.92;129443;1264;114870;-60
2023/11/20 10:56:20;;;;;;;12.80;6.70;;;;;;;9.99;100.00;99306.84;129242;1282;128383;-58
2023/11/20 10:59:24;;;;;;;8.90;6.40;;;;;;;10.02;100.00;99301.82;129497;1259;115180;-59
2023/11/20 11:02:28;;;;;;;9.90;5.70;;;;;;;10.07;100.00;99299.77;129231;1282;114815;-60
2023/11/20 11:05:30;;;;;;;9.40;5.60;;;;;;;10.10;100.00;99296.86;129477;1264;114722;-60
2023/11/20 11:08:32;;;;;;;8.70;5.10;;;;;;;10.14;100.00;99295.70;129397;1264;114922;-60
2023/11/20 11:11:35;;;;;;;7.70;5.80;;;;;;;10.18;100.00;99294.17;129462;1282;114744;-60
2023/11/20 11:14:38;;;;;;;10.50;5.70;;;;;;;10.19;100.00;99295.02;129531;1259;115439;-60
2023/11/20 11:17:46;;;;;;;8.20;4.70;;;;;;;10.18;100.00;99294.20;129523;1260;115231;-61
2023/11/20 11:20:53;;;;;;;11.00;5.90;;;;;;;10.18;100.00;99286.36;129285;1263;114703;-58
2023/11/20 11:23:57;;;;;;;10.90;6.00;;;;;;;10.16;100.00;99283.27;129280;1264;114931;-61
2023/11/20 11:27:05;;;;;;;13.90;7.00;;;;;;;10.15;100.00;99281.00;129350;1264;114908;-59
2023/11/20 11:30:09;;;;;;;16.20;7.10;;;;;;;10.16;100.00;99275.06;129389;1264;129041;-59
2023/11/20 11:33:33;;;;;;;12.50;6.10;;;;;;;10.18;100.00;99272.77;129513;1264;114711;-60
2023/11/20 11:36:46;;;;;;;8.70;5.90;;;;;;;10.22;100.00;99271.14;129197;1267;114896;-61
2023/11/20 11:40:09;;;;;;;9.80;6.10;;;;;;;10.22;100.00;99265.91;129326;1267;115243;-59
2023/11/20 11:43:36;;;;;;;10.40;5.90;;;;;;;10.22;100.00;99257.56;129135;1267;114898;-60
2023/11/20 11:46:38;;;;;;;9.50;6.20;;;;;;;10.22;100.00;99256.84;129374;1260;128859;-61
2023/11/20 11:49:49;;;;;;;13.00;7.60;;;;;;;10.24;100.00;99258.14;129490;1262;114710;-59
2023/11/20 11:52:54;;;;;;;12.90;6.70;;;;;;;10.29;100.00;99255.35;129442;1263;114705;-59
2023/11/20 11:56:07;;;;;;;11.10;6.50;;;;;;;10.34;100.00;99253.38;129272;1276;114719;-59
2023/11/20 11:59:12;;;;;;;9.50;5.80;;;;;;;10.40;100.00;99255.87;129430;1264;114728;-59
2023/11/20 12:02:18;;;;;;;11.00;5.50;;;;;;;10.49;100.00;99253.87;129290;1270;127963;-59
2023/11/20 12:05:22;;;;;;;6.00;4.50;;;;;;;10.60;100.00;99252.77;129416;1259;115188;-59
2023/11/20 12:08:33;;;;;;;7.10;4.50;;;;;;;10.73;100.00;99247.63;129489;1264;114699;-59
2023/11/20 12:11:48;;;;;;;6.80;5.10;;;;;;;10.81;100.00;99247.83;129395;1264;114918;-59
2023/11/20 12:14:50;;;;;;;6.60;4.30;;;;;;;10.86;100.00;99244.29;129241;1275;114948;-59
2023/11/20 12:17:55;;;;;;;8.20;4.20;;;;;;;10.87;100.00;99239.36;129399;1260;114731;-59
2023/11/20 12:20:59;;;;;;;;;;;;;;;10.86;100.00;99232.70;129404;1260;114863;-59
2023/11/20 12:24:01;;;;;;;5.60;3.60;;;;;;;10.82;100.00;99232.05;129207;1264;114773;-60
2023/11/20 12:27:04;;;;;;;4.20;3.00;;;;;;;10.79;100.00;99228.30;129304;1277;115183;-60
2023/11/20 12:30:07;;;;;;;4.30;3.10;;;;;;;10.76;100.00;99227.45;129459;1265;114707;-60
2023/11/20 12:33:09;;;;;;;6.80;3.00;;;;;;;10.74;100.00;99222.59;129511;1264;114954;-59
2023/11/20 12:36:12;;;;;;;6.60;2.90;;;;;;;10.71;100.00;99225.79;129523;1259;114853;-61
2023/11/20 12:39:14;;;;;;;4.20;3.20;;;;;;;10.68;100.00;99226.88;129207;1264;116779;-60
2023/11/20 12:42:19;;;;;;;3.40;1.90;;;;;;;10.70;100.00;99221.41;129345;1260;114780;-60
2023/11/20 12:45:22;;;;;;;4.00;2.10;;;;;;;10.73;100.00;99224.46;129428;1264;114722;-60
2023/11/20 12:48:24;;;;;;;2.50;1.80;;;;;;;10.75;100.00;99224.84;129547;1265;114824;-60
2023/11/20 12:51:26;;;;;;;10.20;3.30;;;;;;;10.77;100.00;99224.70;129560;1262;114707;-61
2023/11/20 12:54:29;;;;;;;4.50;2.10;;;;;;;10.78;100.00;99226.91;129611;1281;128792;-60
2023/11/20 12:57:31;;;;;;;3.10;2.00;;;;;;;10.81;100.00;99227.52;129635;1259;114865;-60
2023/11/20 13:00:33;;;;;;;2.70;2.00;;;;;;;10.82;100.00;99225.66;129464;1262;114786;-61
2023/11/20 13:03:36;;;;;;;2.60;1.80;;;;;;;10.85;100.00;99228.08;129779;1259;114727;-61
2023/11/20 13:06:39;;;;;;;3.50;2.10;;;;;;;10.88;100.00;99221.27;129929;1262;114757;-60
2023/11/20 13:09:42;;;;;;;3.80;2.00;;;;;;;10.92;100.00;99222.58;129677;1261;114849;-61
2023/11/20 13:12:45;;;;;;;4.90;2.30;;;;;;;10.95;100.00;99222.23;129335;1274;114799;-60
2023/11/20 13:15:49;;;;;;;4.50;2.70;;;;;;;10.96;100.00;99221.45;129460;1275;115180;-58
2023/11/20 13:18:53;;;;;;;6.00;3.90;;;;;;;10.98;100.00;99221.65;129560;1263;114816;-59
2023/11/20 13:22:01;;;;;;;4.90;2.70;;;;;;;11.02;100.00;99221.04;129342;1259;114837;-58
2023/11/20 13:25:04;;;;;;;3.40;2.40;;;;;;;11.05;100.00;99219.05;129198;1282;114811;-59
2023/11/20 13:28:11;;;;;;;5.00;2.50;;;;;;;11.09;100.00;99218.23;129411;1259;114844;-59
2023/11/20 13:31:13;;;;;;;4.30;2.40;;;;;;;11.12;100.00;99219.86;129351;1260;116490;-59
2023/11/20 13:34:15;;;;;;;3.50;2.10;;;;;;;11.13;100.00;99221.55;129331;1263;114800;-59
2023/11/20 13:37:17;;;;;;;4.10;2.40;;;;;;;11.14;100.00;99220.97;129422;1277;115314;-58
2023/11/20 13:40:19;;;;;;;3.20;1.90;;;;;;;11.13;100.00;99223.13;129185;1263;114803;-61
2023/11/20 13:43:27;;;;;;;4.10;2.60;;;;;;;11.13;100.00;99225.67;129439;1264;114721;-61
2023/11/20 13:46:31;;;;;;;3.00;2.30;;;;;;;11.14;100.00;99225.40;129424;1282;128772;-61
2023/11/20 13:49:34;;;;;;;2.70;1.90;;;;;;;11.14;100.00;99220.61;129255;1275;115050;-60
2023/11/20 13:52:38;;;;;;;4.10;2.60;;;;;;;11.11;100.00;99220.95;129392;1263;114774;-60